createdAt,value
2019-02-01T00:00:43.342Z,0
2019-02-01T00:01:53.303Z,0
2019-02-01T00:03:03.242Z,0
2019-02-01T00:04:13.177Z,0
2019-02-01T00:05:22.843Z,0
2019-02-01T00:06:32.793Z,0
2019-02-01T00:07:42.506Z,0
2019-02-01T00:08:52.195Z,0
2019-02-01T00:10:01.878Z,0
2019-02-01T00:11:11.069Z,0
2019-02-01T00:12:21.056Z,0
2019-02-01T00:13:31.016Z,0
2019-02-01T00:14:40.962Z,0
2019-02-01T00:15:50.902Z,0
2019-02-01T00:17:00.870Z,0
2019-02-01T00:18:14.169Z,0
2019-02-01T00:19:24.112Z,0
2019-02-01T00:20:34.040Z,0
2019-02-01T00:21:43.982Z,0
2019-02-01T00:22:53.920Z,0
2019-02-01T00:24:03.606Z,0
2019-02-01T00:25:13.553Z,0
2019-02-01T00:26:23.480Z,0
2019-02-01T00:27:33.152Z,0
2019-02-01T00:28:42.848Z,0
2019-02-01T00:29:52.528Z,0
2019-02-01T00:31:02.478Z,0
2019-02-01T00:32:11.680Z,0
2019-02-01T00:33:34.137Z,0
2019-02-01T00:34:43.828Z,0
2019-02-01T00:35:53.765Z,0
2019-02-01T00:37:03.809Z,0
2019-02-01T00:38:13.755Z,0
2019-02-01T00:39:23.439Z,0
2019-02-01T00:40:33.138Z,0
2019-02-01T00:41:42.564Z,0
2019-02-01T00:42:52.488Z,0
2019-02-01T00:44:02.174Z,0
2019-02-01T00:45:12.122Z,0
2019-02-01T00:46:22.084Z,0
2019-02-01T00:47:31.776Z,0
2019-02-01T00:48:41.458Z,0
2019-02-01T00:49:51.404Z,0
2019-02-01T00:51:00.592Z,0
2019-02-01T00:52:10.536Z,0
2019-02-01T00:53:20.492Z,0
2019-02-01T00:54:30.404Z,0
2019-02-01T00:55:39.838Z,0
2019-02-01T00:56:49.780Z,0
2019-02-01T00:57:59.461Z,0
2019-02-01T00:59:09.430Z,0
2019-02-01T01:00:19.440Z,0
2019-02-01T01:01:29.397Z,0
2019-02-01T01:02:39.349Z,0
2019-02-01T01:03:49.025Z,0
2019-02-01T01:04:58.970Z,0
2019-02-01T01:06:08.909Z,0
2019-02-01T01:07:18.878Z,0
2019-02-01T01:08:28.813Z,0
2019-02-01T01:09:38.500Z,0
2019-02-01T01:10:48.191Z,0
2019-02-01T01:11:57.880Z,0
2019-02-01T01:13:07.807Z,0
2019-02-01T01:14:17.769Z,0
2019-02-01T01:15:27.715Z,0
2019-02-01T01:16:37.670Z,0
2019-02-01T01:17:47.604Z,0
2019-02-01T01:18:57.552Z,0
2019-02-01T01:20:07.618Z,0
2019-02-01T01:21:17.545Z,0
2019-02-01T01:22:27.473Z,0
2019-02-01T01:23:37.490Z,0
2019-02-01T01:24:47.177Z,0
2019-02-01T01:25:57.118Z,0
2019-02-01T01:27:06.800Z,0
2019-02-01T01:28:16.739Z,0
2019-02-01T01:29:26.778Z,0
2019-02-01T01:30:36.793Z,0
2019-02-01T01:31:46.232Z,0
2019-02-01T01:32:56.175Z,0
2019-02-01T01:34:06.117Z,0
2019-02-01T01:35:16.039Z,0
2019-02-01T01:36:25.736Z,0
2019-02-01T01:37:35.668Z,0
2019-02-01T01:38:45.615Z,0
2019-02-01T01:39:55.583Z,0
2019-02-01T01:41:05.015Z,0
2019-02-01T01:42:14.943Z,0
2019-02-01T01:43:24.879Z,0
2019-02-01T01:44:34.924Z,0
2019-02-01T01:45:44.860Z,0
2019-02-01T01:46:54.785Z,0
2019-02-01T01:48:04.732Z,0
2019-02-01T01:49:14.666Z,0
2019-02-01T01:50:24.651Z,0
2019-02-01T01:51:34.591Z,0
2019-02-01T01:52:44.522Z,0
2019-02-01T01:53:53.965Z,0
2019-02-01T01:55:03.514Z,0
2019-02-01T01:56:13.433Z,0
2019-02-01T01:57:23.114Z,0
2019-02-01T01:58:33.215Z,0
2019-02-01T01:59:43.176Z,0
2019-02-01T02:00:52.611Z,0
2019-02-01T02:02:02.646Z,0
2019-02-01T02:03:12.583Z,0
2019-02-01T02:04:22.530Z,0
2019-02-01T02:05:32.459Z,0
2019-02-01T02:06:42.401Z,0
2019-02-01T02:07:52.083Z,0
2019-02-01T02:09:02.001Z,0
2019-02-01T02:10:11.933Z,0
2019-02-01T02:11:21.877Z,0
2019-02-01T02:12:31.298Z,0
2019-02-01T02:13:40.973Z,0
2019-02-01T02:14:50.675Z,0
2019-02-01T02:16:00.614Z,0
2019-02-01T02:17:10.551Z,0
2019-02-01T02:18:20.230Z,0
2019-02-01T02:19:30.196Z,0
2019-02-01T02:20:39.884Z,0
2019-02-01T02:21:49.928Z,0
2019-02-01T02:22:59.891Z,0
2019-02-01T02:24:09.833Z,0
2019-02-01T02:25:19.766Z,0
2019-02-01T02:26:29.694Z,0
2019-02-01T02:27:39.623Z,0
2019-02-01T02:28:49.667Z,0
2019-02-01T02:29:59.348Z,0
2019-02-01T02:31:09.475Z,0
2019-02-01T02:32:19.552Z,0
2019-02-01T02:33:29.508Z,0
2019-02-01T02:34:39.451Z,0
2019-02-01T02:35:49.157Z,0
2019-02-01T02:36:58.611Z,0
2019-02-01T02:38:08.293Z,0
2019-02-01T02:39:18.245Z,0
2019-02-01T02:40:28.208Z,0
2019-02-01T02:41:37.663Z,0
2019-02-01T02:42:47.620Z,0
2019-02-01T02:43:57.334Z,0
2019-02-01T02:45:07.033Z,0
2019-02-01T02:46:19.128Z,0
2019-02-01T02:47:29.191Z,0
2019-02-01T02:48:38.629Z,0
2019-02-01T02:49:48.561Z,0
2019-02-01T02:50:58.266Z,0
2019-02-01T02:52:08.205Z,0
2019-02-01T02:53:18.137Z,0
2019-02-01T02:54:27.920Z,0
2019-02-01T02:55:37.615Z,0
2019-02-01T02:56:47.570Z,0
2019-02-01T02:57:57.295Z,0
2019-02-01T02:59:07.231Z,0
2019-02-01T03:00:17.191Z,0
2019-02-01T03:01:26.878Z,0
2019-02-01T03:02:36.828Z,0
2019-02-01T03:03:46.801Z,0
2019-02-01T03:04:56.741Z,0
2019-02-01T03:06:06.664Z,0
2019-02-01T03:07:16.611Z,0
2019-02-01T03:08:26.581Z,0
2019-02-01T03:09:36.265Z,0
2019-02-01T03:10:46.193Z,0
2019-02-01T03:11:55.867Z,0
2019-02-01T03:13:05.555Z,0
2019-02-01T03:14:15.508Z,0
2019-02-01T03:15:25.465Z,0
2019-02-01T03:16:34.903Z,0
2019-02-01T03:17:44.580Z,0
2019-02-01T03:18:54.275Z,0
2019-02-01T03:20:04.446Z,0
2019-02-01T03:21:14.373Z,0
2019-02-01T03:22:24.195Z,0
2019-02-01T03:23:33.883Z,0
2019-02-01T03:24:43.561Z,0
2019-02-01T03:25:53.518Z,0
2019-02-01T03:27:03.207Z,0
2019-02-01T03:28:12.923Z,0
2019-02-01T03:29:22.864Z,0
2019-02-01T03:30:32.852Z,0
2019-02-01T03:31:42.866Z,0
2019-02-01T03:32:52.942Z,0
2019-02-01T03:34:02.919Z,0
2019-02-01T03:35:12.876Z,0
2019-02-01T03:36:22.572Z,0
2019-02-01T03:37:32.261Z,0
2019-02-01T03:38:42.194Z,0
2019-02-01T03:39:51.913Z,0
2019-02-01T03:41:01.857Z,0
2019-02-01T03:42:11.610Z,0
2019-02-01T03:43:21.592Z,0
2019-02-01T03:44:31.553Z,0
2019-02-01T03:45:41.495Z,0
2019-02-01T03:46:51.182Z,0
2019-02-01T03:48:01.142Z,0
2019-02-01T03:49:11.092Z,0
2019-02-01T03:50:32.785Z,0
2019-02-01T03:51:42.708Z,0
2019-02-01T03:52:52.838Z,0
2019-02-01T03:54:02.784Z,0
2019-02-01T03:55:12.722Z,0
2019-02-01T03:56:22.155Z,0
2019-02-01T03:57:32.104Z,0
2019-02-01T03:58:41.546Z,0
2019-02-01T03:59:51.492Z,0
2019-02-01T04:01:01.442Z,0
2019-02-01T04:02:11.146Z,0
2019-02-01T04:03:20.853Z,0
2019-02-01T04:04:30.527Z,0
2019-02-01T04:05:39.967Z,0
2019-02-01T04:06:49.918Z,0
2019-02-01T04:07:59.598Z,0
2019-02-01T04:09:09.536Z,0
2019-02-01T04:10:19.638Z,0
2019-02-01T04:11:29.310Z,0
2019-02-01T04:12:38.989Z,0
2019-02-01T04:13:48.676Z,0
2019-02-01T04:14:58.634Z,0
2019-02-01T04:16:08.332Z,0
2019-02-01T04:17:18.034Z,0
2019-02-01T04:18:27.969Z,0
2019-02-01T04:19:55.085Z,0
2019-02-01T04:21:04.774Z,0
2019-02-01T04:22:14.211Z,0
2019-02-01T04:23:23.887Z,0
2019-02-01T04:24:33.650Z,0
2019-02-01T04:25:43.651Z,0
2019-02-01T04:26:53.336Z,0
2019-02-01T04:28:03.282Z,0
2019-02-01T04:29:12.954Z,0
2019-02-01T04:30:22.669Z,0
2019-02-01T04:31:32.651Z,0
2019-02-01T04:32:42.788Z,0
2019-02-01T04:33:52.731Z,0
2019-02-01T04:35:02.952Z,0
2019-02-01T04:36:12.753Z,0
2019-02-01T04:37:22.687Z,0
2019-02-01T04:38:32.111Z,0
2019-02-01T04:39:42.040Z,0
2019-02-01T04:40:51.992Z,0
2019-02-01T04:42:01.947Z,0
2019-02-01T04:43:11.890Z,0
2019-02-01T04:44:21.647Z,0
2019-02-01T04:45:31.080Z,0
2019-02-01T04:46:40.760Z,0
2019-02-01T04:47:50.877Z,0
2019-02-01T04:49:00.827Z,0
2019-02-01T04:50:11.453Z,0
2019-02-01T04:51:21.500Z,0
2019-02-01T04:52:30.950Z,0
2019-02-01T04:53:40.632Z,0
2019-02-01T04:54:50.318Z,0
2019-02-01T04:56:00.242Z,0
2019-02-01T04:57:09.936Z,0
2019-02-01T04:58:19.868Z,0
2019-02-01T04:59:29.806Z,0
2019-02-01T05:00:39.946Z,0
2019-02-01T05:01:49.876Z,0
2019-02-01T05:02:59.825Z,0
2019-02-01T05:04:09.791Z,0
2019-02-01T05:05:19.524Z,0
2019-02-01T05:06:29.470Z,0
2019-02-01T05:07:39.394Z,0
2019-02-01T05:08:49.360Z,0
2019-02-01T05:09:59.303Z,0
2019-02-01T05:11:09.014Z,0
2019-02-01T05:12:18.690Z,0
2019-02-01T05:13:28.639Z,0
2019-02-01T05:14:38.586Z,0
2019-02-01T05:15:48.331Z,0
2019-02-01T05:16:57.763Z,0
2019-02-01T05:18:07.867Z,0
2019-02-01T05:19:17.563Z,0
2019-02-01T05:20:28.336Z,0
2019-02-01T05:21:38.294Z,0
2019-02-01T05:22:47.723Z,0
2019-02-01T05:23:57.668Z,0
2019-02-01T05:25:07.386Z,0
2019-02-01T05:26:17.081Z,0
2019-02-01T05:27:26.509Z,0
2019-02-01T05:28:36.211Z,0
2019-02-01T05:29:46.163Z,0
2019-02-01T05:30:56.116Z,0
2019-02-01T05:32:06.059Z,0
2019-02-01T05:33:15.742Z,0
2019-02-01T05:34:25.842Z,0
2019-02-01T05:35:35.807Z,0
2019-02-01T05:36:45.751Z,0
2019-02-01T05:37:55.694Z,0
2019-02-01T05:39:05.423Z,0
2019-02-01T05:40:15.213Z,0
2019-02-01T05:41:24.651Z,0
2019-02-01T05:42:34.578Z,0
2019-02-01T05:43:44.272Z,0
2019-02-01T05:44:53.955Z,0
2019-02-01T05:46:03.899Z,0
2019-02-01T05:47:13.328Z,0
2019-02-01T05:48:23.313Z,0
2019-02-01T05:49:33.343Z,0
2019-02-01T05:50:43.272Z,0
2019-02-01T05:51:53.200Z,0
2019-02-01T05:53:03.147Z,0
2019-02-01T05:54:12.832Z,0
2019-02-01T05:55:22.539Z,0
2019-02-01T05:56:32.487Z,0
2019-02-01T05:57:42.461Z,0
2019-02-01T05:58:52.405Z,0
2019-02-01T06:00:01.919Z,0
2019-02-01T06:01:11.365Z,0
2019-02-01T06:02:21.286Z,0
2019-02-01T06:03:31.223Z,0
2019-02-01T06:04:41.168Z,0
2019-02-01T06:05:50.861Z,0
2019-02-01T06:07:00.780Z,0
2019-02-01T06:08:10.722Z,0
2019-02-01T06:09:20.416Z,0
2019-02-01T06:10:30.380Z,0
2019-02-01T06:11:40.353Z,4
2019-02-01T06:12:50.313Z,0
2019-02-01T06:13:59.999Z,0
2019-02-01T06:15:09.938Z,4
2019-02-01T06:16:19.639Z,4
2019-02-01T06:17:29.578Z,4
2019-02-01T06:18:39.502Z,8
2019-02-01T06:19:49.184Z,4
2019-02-01T06:20:59.152Z,8
2019-02-01T06:22:10.288Z,8
2019-02-01T06:23:19.964Z,12
2019-02-01T06:24:29.649Z,12
2019-02-01T06:25:39.622Z,16
2019-02-01T06:26:49.566Z,20
2019-02-01T06:27:59.501Z,24
2019-02-01T06:29:09.212Z,24
2019-02-01T06:30:18.893Z,32
2019-02-01T06:31:29.875Z,40
2019-02-01T06:32:39.607Z,44
2019-02-01T06:33:49.059Z,52
2019-02-01T06:34:59.011Z,64
2019-02-01T06:36:08.466Z,72
2019-02-01T06:37:18.406Z,84
2019-02-01T06:38:28.376Z,100
2019-02-01T06:39:38.327Z,120
2019-02-01T06:40:48.005Z,140
2019-02-01T06:41:57.723Z,160
2019-02-01T06:43:07.803Z,176
2019-02-01T06:44:17.741Z,196
2019-02-01T06:45:27.440Z,220
2019-02-01T06:46:37.426Z,244
2019-02-01T06:47:47.167Z,268
2019-02-01T06:48:56.848Z,296
2019-02-01T06:50:06.577Z,324
2019-02-01T06:51:16.520Z,352
2019-02-01T06:52:26.204Z,388
2019-02-01T06:53:36.152Z,424
2019-02-01T06:54:46.084Z,464
2019-02-01T06:55:56.018Z,516
2019-02-01T06:57:05.995Z,568
2019-02-01T06:58:15.693Z,632
2019-02-01T06:59:25.630Z,692
2019-02-01T07:00:35.588Z,740
2019-02-01T07:01:45.324Z,772
2019-02-01T07:02:55.348Z,796
2019-02-01T07:04:05.329Z,820
2019-02-01T07:05:15.255Z,856
2019-02-01T07:06:25.198Z,888
2019-02-01T07:07:34.647Z,932
2019-02-01T07:08:44.333Z,1012
2019-02-01T07:09:54.288Z,1092
2019-02-01T07:11:03.979Z,1148
2019-02-01T07:12:14.057Z,1212
2019-02-01T07:13:24.039Z,1252
2019-02-01T07:14:34.017Z,1296
2019-02-01T07:15:43.704Z,1332
2019-02-01T07:16:53.642Z,1392
2019-02-01T07:18:03.699Z,1472
2019-02-01T07:19:13.638Z,1572
2019-02-01T07:20:23.582Z,1684
2019-02-01T07:21:33.517Z,1824
2019-02-01T07:22:43.218Z,1928
2019-02-01T07:23:52.909Z,1968
2019-02-01T07:25:02.380Z,1980
2019-02-01T07:26:12.343Z,1988
2019-02-01T07:27:22.024Z,2004
2019-02-01T07:28:31.729Z,2048
2019-02-01T07:29:41.222Z,2096
2019-02-01T07:30:51.174Z,2140
2019-02-01T07:32:01.114Z,2148
2019-02-01T07:33:11.047Z,2172
2019-02-01T07:34:22.338Z,2192
2019-02-01T07:35:31.773Z,2212
2019-02-01T07:36:40.963Z,2256
2019-02-01T07:37:50.636Z,2292
2019-02-01T07:39:00.575Z,2320
2019-02-01T07:40:10.267Z,2356
2019-02-01T07:41:20.199Z,2440
2019-02-01T07:42:29.889Z,2584
2019-02-01T07:43:39.591Z,2752
2019-02-01T07:44:49.017Z,2896
2019-02-01T07:45:58.959Z,3056
2019-02-01T07:47:08.914Z,3248
2019-02-01T07:48:18.866Z,3468
2019-02-01T07:49:28.821Z,3744
2019-02-01T07:50:38.512Z,4036
2019-02-01T07:51:48.179Z,4388
2019-02-01T07:53:00.319Z,4644
2019-02-01T07:54:10.258Z,4748
2019-02-01T07:55:20.207Z,4800
2019-02-01T07:56:30.139Z,4856
2019-02-01T07:57:40.079Z,4932
2019-02-01T07:58:50.042Z,4960
2019-02-01T07:59:59.479Z,4992
2019-02-01T08:01:09.174Z,5044
2019-02-01T08:02:19.107Z,5156
2019-02-01T08:03:28.789Z,5272
2019-02-01T08:04:38.731Z,5400
2019-02-01T08:05:47.911Z,5520
2019-02-01T08:06:57.845Z,5664
2019-02-01T08:08:07.846Z,5792
2019-02-01T08:09:17.804Z,5928
2019-02-01T08:10:27.506Z,6116
2019-02-01T08:11:37.446Z,6312
2019-02-01T08:12:47.387Z,6484
2019-02-01T08:13:56.835Z,6652
2019-02-01T08:15:06.777Z,6732
2019-02-01T08:16:16.722Z,6696
2019-02-01T08:17:26.679Z,6576
2019-02-01T08:18:36.613Z,6464
2019-02-01T08:19:46.561Z,6404
2019-02-01T08:21:01.000Z,6200
2019-02-01T08:22:10.727Z,6212
2019-02-01T08:23:20.761Z,6340
2019-02-01T08:24:30.729Z,6408
2019-02-01T08:25:40.433Z,6520
2019-02-01T08:26:50.405Z,6772
2019-02-01T08:27:59.855Z,7096
2019-02-01T08:29:09.623Z,7364
2019-02-01T08:30:19.571Z,7672
2019-02-01T08:31:29.679Z,7800
2019-02-01T08:32:39.381Z,7756
2019-02-01T08:33:48.831Z,7700
2019-02-01T08:34:58.525Z,7884
2019-02-01T08:36:07.976Z,7872
2019-02-01T08:37:17.703Z,7864
2019-02-01T08:38:27.159Z,7748
2019-02-01T08:39:36.589Z,7468
2019-02-01T08:40:46.518Z,7060
2019-02-01T08:41:56.238Z,6708
2019-02-01T08:43:13.659Z,6344
2019-02-01T08:44:23.610Z,6040
2019-02-01T08:45:33.554Z,5920
2019-02-01T08:46:43.516Z,5904
2019-02-01T08:47:52.729Z,5960
2019-02-01T08:49:02.453Z,6016
2019-02-01T08:50:12.645Z,6072
2019-02-01T08:51:22.623Z,6284
2019-02-01T08:52:32.599Z,6624
2019-02-01T08:53:42.300Z,6760
2019-02-01T08:54:52.408Z,6592
2019-02-01T08:56:01.847Z,6488
2019-02-01T08:57:11.837Z,6432
2019-02-01T08:58:21.813Z,6324
2019-02-01T08:59:31.319Z,6192
2019-02-01T09:00:41.047Z,5928
2019-02-01T09:01:51.123Z,5652
2019-02-01T09:03:00.854Z,5476
2019-02-01T09:04:10.557Z,5472
2019-02-01T09:05:20.565Z,5640
2019-02-01T09:06:30.515Z,6016
2019-02-01T09:07:40.223Z,6616
2019-02-01T09:08:50.294Z,7220
2019-02-01T09:10:00.322Z,7624
2019-02-01T09:11:10.293Z,7800
2019-02-01T09:12:20.301Z,7908
2019-02-01T09:13:30.252Z,8044
2019-02-01T09:14:40.260Z,8248
2019-02-01T09:15:49.969Z,8480
2019-02-01T09:16:59.907Z,8752
2019-02-01T09:18:09.857Z,9036
2019-02-01T09:19:19.791Z,9300
2019-02-01T09:20:29.823Z,9372
2019-02-01T09:21:49.910Z,9260
2019-02-01T09:23:00.323Z,9040
2019-02-01T09:24:10.043Z,8860
2019-02-01T09:25:20.019Z,8768
2019-02-01T09:26:29.973Z,8616
2019-02-01T09:27:39.933Z,8484
2019-02-01T09:28:49.881Z,8340
2019-02-01T09:29:59.631Z,8220
2019-02-01T09:31:09.637Z,8200
2019-02-01T09:32:19.614Z,8160
2019-02-01T09:33:29.660Z,8060
2019-02-01T09:34:39.616Z,8012
2019-02-01T09:35:49.586Z,8004
2019-02-01T09:36:59.291Z,7868
2019-02-01T09:38:09.247Z,7772
2019-02-01T09:39:19.208Z,7876
2019-02-01T09:40:29.159Z,8048
2019-02-01T09:41:38.843Z,8120
2019-02-01T09:42:48.788Z,7968
2019-02-01T09:43:58.222Z,7784
2019-02-01T09:45:09.739Z,7640
2019-02-01T09:46:19.534Z,7496
2019-02-01T09:47:29.223Z,7208
2019-02-01T09:48:39.182Z,6716
2019-02-01T09:49:49.119Z,6160
2019-02-01T09:50:58.832Z,5828
2019-02-01T09:52:12.714Z,5684
2019-02-01T09:53:22.722Z,5716
2019-02-01T09:54:32.786Z,5760
2019-02-01T09:55:42.736Z,5840
2019-02-01T09:56:52.669Z,6012
2019-02-01T09:58:02.425Z,6348
2019-02-01T09:59:12.402Z,6768
2019-02-01T10:00:22.114Z,7284
2019-02-01T10:01:32.128Z,7704
2019-02-01T10:02:42.090Z,7976
2019-02-01T10:03:58.417Z,8340
2019-02-01T10:05:08.128Z,8676
2019-02-01T10:06:18.067Z,9048
2019-02-01T10:07:28.037Z,9192
2019-02-01T10:08:37.503Z,9352
2019-02-01T10:09:47.461Z,9612
2019-02-01T10:10:57.485Z,9716
2019-02-01T10:12:07.441Z,8988
2019-02-01T10:13:17.142Z,8572
2019-02-01T10:14:27.111Z,8432
2019-02-01T10:15:36.834Z,8300
2019-02-01T10:16:46.528Z,8000
2019-02-01T10:17:56.287Z,7844
2019-02-01T10:19:06.372Z,7560
2019-02-01T10:20:16.328Z,7260
2019-02-01T10:21:26.036Z,7304
2019-02-01T10:22:35.978Z,7608
2019-02-01T10:23:48.264Z,7812
2019-02-01T10:24:57.723Z,8120
2019-02-01T10:26:10.806Z,8092
2019-02-01T10:27:20.751Z,7712
2019-02-01T10:28:30.446Z,7496
2019-02-01T10:29:40.804Z,7544
2019-02-01T10:30:50.866Z,7520
2019-02-01T10:32:00.571Z,7356
2019-02-01T10:33:09.758Z,7048
2019-02-01T10:34:19.465Z,6816
2019-02-01T10:35:29.434Z,6824
2019-02-01T10:36:39.398Z,7048
2019-02-01T10:37:49.395Z,7332
2019-02-01T10:38:59.559Z,7284
2019-02-01T10:40:09.502Z,7260
2019-02-01T10:41:19.586Z,7492
2019-02-01T10:42:29.318Z,7712
2019-02-01T10:43:39.267Z,7868
2019-02-01T10:44:48.970Z,7784
2019-02-01T10:46:01.416Z,7504
2019-02-01T10:47:18.326Z,7664
2019-02-01T10:48:28.293Z,7676
2019-02-01T10:49:38.496Z,7268
2019-02-01T10:50:48.449Z,6844
2019-02-01T10:51:58.154Z,6512
2019-02-01T10:53:07.906Z,6284
2019-02-01T10:54:17.624Z,6296
2019-02-01T10:55:27.576Z,6504
2019-02-01T10:56:39.518Z,6372
2019-02-01T10:57:49.482Z,6048
2019-02-01T10:58:59.532Z,5976
2019-02-01T11:00:09.271Z,6224
2019-02-01T11:01:21.056Z,6780
2019-02-01T11:02:30.983Z,7496
2019-02-01T11:03:40.684Z,8168
2019-02-01T11:04:50.161Z,8964
2019-02-01T11:06:00.218Z,9564
2019-02-01T11:07:12.660Z,9828
2019-02-01T11:08:22.610Z,9532
2019-02-01T11:09:32.300Z,9048
2019-02-01T11:10:42.006Z,8668
2019-02-01T11:11:51.696Z,8484
2019-02-01T11:13:01.664Z,8032
2019-02-01T11:14:11.371Z,7604
2019-02-01T11:15:20.812Z,7736
2019-02-01T11:16:34.399Z,7472
2019-02-01T11:17:44.342Z,6568
2019-02-01T11:18:53.794Z,6192
2019-02-01T11:20:03.497Z,6000
2019-02-01T11:21:13.190Z,5844
2019-02-01T11:22:23.145Z,6264
2019-02-01T11:23:43.797Z,6784
2019-02-01T11:24:53.530Z,7312
2019-02-01T11:26:03.468Z,7604
2019-02-01T11:27:13.419Z,7596
2019-02-01T11:28:23.146Z,7192
2019-02-01T11:29:32.596Z,7172
2019-02-01T11:30:42.295Z,7280
2019-02-01T11:31:51.979Z,6876
2019-02-01T11:33:01.675Z,6620
2019-02-01T11:34:11.384Z,6748
2019-02-01T11:35:21.078Z,6944
2019-02-01T11:36:30.780Z,6984
2019-02-01T11:37:40.478Z,7112
2019-02-01T11:38:50.478Z,7236
2019-02-01T11:40:00.440Z,7420
2019-02-01T11:41:10.422Z,7696
2019-02-01T11:42:20.153Z,8272
2019-02-01T11:43:29.836Z,8896
2019-02-01T11:44:39.539Z,9628
2019-02-01T11:45:49.470Z,10356
2019-02-01T11:46:59.182Z,10860
2019-02-01T11:48:09.122Z,10984
2019-02-01T11:49:18.833Z,10880
2019-02-01T11:50:28.798Z,10584
2019-02-01T11:51:38.742Z,10496
2019-02-01T11:52:55.618Z,10348
2019-02-01T11:54:05.674Z,9908
2019-02-01T11:55:15.385Z,9880
2019-02-01T11:56:24.849Z,10184
2019-02-01T11:57:34.835Z,10012
2019-02-01T11:58:44.291Z,9608
2019-02-01T11:59:54.005Z,9044
2019-02-01T12:01:05.056Z,8676
2019-02-01T12:02:15.226Z,8468
2019-02-01T12:03:25.169Z,8600
2019-02-01T12:04:35.134Z,8744
2019-02-01T12:05:44.829Z,8436
2019-02-01T12:06:54.874Z,8092
2019-02-01T12:08:04.826Z,7528
2019-02-01T12:09:14.793Z,7120
2019-02-01T12:10:24.733Z,7076
2019-02-01T12:11:34.754Z,7376
2019-02-01T12:12:44.714Z,7732
2019-02-01T12:13:54.690Z,7824
2019-02-01T12:15:04.640Z,7648
2019-02-01T12:16:14.332Z,7588
2019-02-01T12:17:23.773Z,7832
2019-02-01T12:18:33.480Z,8164
2019-02-01T12:19:43.422Z,8696
2019-02-01T12:20:53.499Z,9244
2019-02-01T12:22:03.206Z,9480
2019-02-01T12:23:13.154Z,9280
2019-02-01T12:24:22.839Z,9072
2019-02-01T12:25:32.800Z,9212
2019-02-01T12:26:42.756Z,9400
2019-02-01T12:27:52.454Z,9768
2019-02-01T12:29:02.391Z,10412
2019-02-01T12:30:12.326Z,11092
2019-02-01T12:31:27.052Z,11184
2019-02-01T12:32:36.756Z,11236
2019-02-01T12:33:46.710Z,11504
2019-02-01T12:34:56.416Z,12472
2019-02-01T12:36:06.374Z,13912
2019-02-01T12:37:16.069Z,14988
2019-02-01T12:38:26.041Z,14632
2019-02-01T12:39:36.089Z,13928
2019-02-01T12:40:45.509Z,13912
2019-02-01T12:41:55.462Z,14228
2019-02-01T12:43:05.152Z,14348
2019-02-01T12:44:14.858Z,14224
2019-02-01T12:45:24.841Z,13272
2019-02-01T12:46:34.540Z,12836
2019-02-01T12:47:44.482Z,12352
2019-02-01T12:48:54.443Z,12188
2019-02-01T12:50:04.164Z,12324
2019-02-01T12:51:14.104Z,11856
2019-02-01T12:52:23.804Z,11740
2019-02-01T12:53:33.513Z,11872
2019-02-01T12:54:43.201Z,11980
2019-02-01T12:55:52.904Z,12028
2019-02-01T12:57:02.618Z,11284
2019-02-01T12:58:12.079Z,10380
2019-02-01T12:59:21.789Z,10040
2019-02-01T13:00:31.732Z,10236
2019-02-01T13:01:41.433Z,10408
2019-02-01T13:02:51.144Z,10340
2019-02-01T13:04:01.099Z,10472
2019-02-01T13:05:11.063Z,10360
2019-02-01T13:06:21.093Z,9792
2019-02-01T13:07:30.804Z,9528
2019-02-01T13:08:40.876Z,9344
2019-02-01T13:09:50.834Z,8752
2019-02-01T13:11:00.789Z,8480
2019-02-01T13:12:10.720Z,8432
2019-02-01T13:13:20.897Z,8236
2019-02-01T13:14:30.578Z,8312
2019-02-01T13:15:40.288Z,8688
2019-02-01T13:16:50.251Z,9488
2019-02-01T13:17:59.705Z,9980
2019-02-01T13:19:09.651Z,9396
2019-02-01T13:20:19.238Z,8540
2019-02-01T13:21:29.189Z,7996
2019-02-01T13:22:39.133Z,8028
2019-02-01T13:23:48.826Z,8220
2019-02-01T13:24:59.256Z,8368
2019-02-01T13:26:09.054Z,8284
2019-02-01T13:27:19.026Z,7764
2019-02-01T13:28:28.976Z,7244
2019-02-01T13:29:38.669Z,6860
2019-02-01T13:30:48.628Z,6696
2019-02-01T13:31:58.326Z,6640
2019-02-01T13:33:08.030Z,6656
2019-02-01T13:34:17.734Z,6788
2019-02-01T13:35:29.001Z,6784
2019-02-01T13:36:41.209Z,6620
2019-02-01T13:37:51.018Z,6504
2019-02-01T13:39:00.966Z,6592
2019-02-01T13:40:10.912Z,6676
2019-02-01T13:41:20.892Z,6560
2019-02-01T13:42:30.583Z,6480
2019-02-01T13:43:40.269Z,6524
2019-02-01T13:44:50.225Z,6380
2019-02-01T13:46:08.289Z,6520
2019-02-01T13:47:18.000Z,6800
2019-02-01T13:48:27.703Z,7212
2019-02-01T13:49:37.651Z,7800
2019-02-01T13:50:47.601Z,8152
2019-02-01T13:51:57.095Z,8036
2019-02-01T13:53:06.788Z,7836
2019-02-01T13:54:16.472Z,7980
2019-02-01T13:55:26.155Z,8200
2019-02-01T13:56:35.854Z,8132
2019-02-01T13:57:45.571Z,7840
2019-02-01T13:58:55.511Z,7528
2019-02-01T14:00:13.337Z,7384
2019-02-01T14:01:23.047Z,7548
2019-02-01T14:02:32.999Z,7844
2019-02-01T14:03:42.935Z,8176
2019-02-01T14:04:52.665Z,8560
2019-02-01T14:06:02.699Z,8964
2019-02-01T14:07:12.402Z,9640
2019-02-01T14:08:22.108Z,10136
2019-02-01T14:09:32.067Z,10068
2019-02-01T14:10:41.807Z,9652
2019-02-01T14:11:51.517Z,9100
2019-02-01T14:13:01.664Z,8336
2019-02-01T14:14:20.072Z,7508
2019-02-01T14:15:32.296Z,7092
2019-02-01T14:16:42.030Z,6832
2019-02-01T14:17:51.734Z,6568
2019-02-01T14:19:03.477Z,6400
2019-02-01T14:20:13.068Z,6312
2019-02-01T14:21:22.834Z,6132
2019-02-01T14:22:32.815Z,5920
2019-02-01T14:23:53.358Z,5844
2019-02-01T14:25:03.326Z,5780
2019-02-01T14:26:15.949Z,5764
2019-02-01T14:27:25.880Z,5968
2019-02-01T14:28:35.610Z,6228
2019-02-01T14:29:45.319Z,6584
2019-02-01T14:30:55.030Z,6740
2019-02-01T14:32:04.989Z,6764
2019-02-01T14:33:14.429Z,6652
2019-02-01T14:34:24.388Z,6668
2019-02-01T14:35:34.353Z,6612
2019-02-01T14:36:44.076Z,6212
2019-02-01T14:37:53.791Z,5896
2019-02-01T14:39:03.483Z,5724
2019-02-01T14:40:13.176Z,5524
2019-02-01T14:41:23.119Z,5476
2019-02-01T14:42:33.071Z,5148
2019-02-01T14:43:43.017Z,4612
2019-02-01T14:44:52.997Z,4228
2019-02-01T14:46:14.726Z,4028
2019-02-01T14:47:24.445Z,4040
2019-02-01T14:48:45.354Z,4136
2019-02-01T14:49:55.547Z,4224
2019-02-01T14:51:05.532Z,4548
2019-02-01T14:52:15.484Z,4908
2019-02-01T14:53:25.469Z,5004
2019-02-01T14:54:35.422Z,4928
2019-02-01T14:55:44.865Z,4928
2019-02-01T14:56:54.806Z,5000
2019-02-01T14:58:04.747Z,4572
2019-02-01T14:59:15.213Z,4084
2019-02-01T15:00:24.928Z,3872
2019-02-01T15:01:34.735Z,3312
2019-02-01T15:02:44.188Z,2864
2019-02-01T15:03:54.009Z,2688
2019-02-01T15:05:03.484Z,2508
2019-02-01T15:06:14.222Z,2360
2019-02-01T15:07:24.174Z,2216
2019-02-01T15:08:34.119Z,2136
2019-02-01T15:09:43.835Z,2052
2019-02-01T15:10:53.274Z,1988
2019-02-01T15:12:03.227Z,1968
2019-02-01T15:13:12.931Z,1836
2019-02-01T15:14:22.890Z,1680
2019-02-01T15:15:32.963Z,1544
2019-02-01T15:16:46.291Z,1420
2019-02-01T15:17:56.267Z,1328
2019-02-01T15:19:06.312Z,1268
2019-02-01T15:20:15.763Z,1192
2019-02-01T15:21:25.712Z,1116
2019-02-01T15:22:35.650Z,1044
2019-02-01T15:23:45.598Z,948
2019-02-01T15:24:55.304Z,860
2019-02-01T15:26:04.986Z,796
2019-02-01T15:27:15.915Z,736
2019-02-01T15:28:25.750Z,688
2019-02-01T15:29:35.711Z,656
2019-02-01T15:30:45.677Z,624
2019-02-01T15:31:55.643Z,600
2019-02-01T15:33:05.347Z,572
2019-02-01T15:34:15.306Z,536
2019-02-01T15:35:24.730Z,512
2019-02-01T15:36:34.447Z,476
2019-02-01T15:37:54.917Z,436
2019-02-01T15:39:07.478Z,400
2019-02-01T15:40:17.522Z,372
2019-02-01T15:41:27.225Z,344
2019-02-01T15:42:38.087Z,328
2019-02-01T15:43:48.209Z,312
2019-02-01T15:44:58.143Z,288
2019-02-01T15:46:07.727Z,260
2019-02-01T15:47:17.671Z,236
2019-02-01T15:48:27.405Z,220
2019-02-01T15:49:37.352Z,196
2019-02-01T15:50:47.319Z,180
2019-02-01T15:51:57.241Z,168
2019-02-01T15:53:07.365Z,152
2019-02-01T15:54:32.668Z,136
2019-02-01T15:55:42.629Z,128
2019-02-01T15:56:52.602Z,112
2019-02-01T15:58:02.569Z,100
2019-02-01T15:59:12.558Z,88
2019-02-01T16:00:22.520Z,80
2019-02-01T16:01:32.603Z,72
2019-02-01T16:02:42.299Z,60
2019-02-01T16:03:54.291Z,56
2019-02-01T16:05:04.233Z,48
2019-02-01T16:06:14.192Z,40
2019-02-01T16:07:24.147Z,36
2019-02-01T16:08:34.096Z,28
2019-02-01T16:09:55.398Z,28
2019-02-01T16:11:05.344Z,20
2019-02-01T16:12:15.286Z,16
2019-02-01T16:13:25.244Z,16
2019-02-01T16:14:35.195Z,12